Time;durP1;ratioP1;P1;durP2;ratioP2;P2;SDS_P1;SDS_P2;PMS_P1;PMS_P2;Temp;Humidity;BMP_temperature;BMP_pressure;BME280_temperature;BME280_humidity;BME280_pressure;Samples;Min_cycle;Max_cycle;Signal;HPM_P1;HPM_P2
2024/02/21 00:00:06;;;;;;;8.77;4.15;;;;;;;6.51;100.00;101149.63;5077251;28;20036;-79
2024/02/21 00:02:32;;;;;;;2.42;2.33;;;;;;;7.51;100.00;101320.25;5075137;28;20052;-80
2024/02/21 00:04:57;;;;;;;9.60;8.73;;;;;;;6.60;100.00;101204.63;5078437;28;20104;-81
2024/02/21 00:07:23;;;;;;;2.72;2.53;;;;;;;7.07;100.00;101306.84;5069092;28;20086;-80
2024/02/21 00:09:48;;;;;;;0.85;0.85;;;;;;;7.40;100.00;101332.16;5076475;28;20086;-79
2024/02/21 00:12:14;;;;;;;3.25;3.05;;;;;;;6.81;100.00;101203.47;5078955;28;20486;-79
2024/02/21 00:14:40;;;;;;;0.77;0.77;;;;;;;7.24;100.00;101286.44;5074179;28;20036;-79
2024/02/21 00:17:08;;;;;;;0.30;0.30;;;;;;;7.24;100.00;101270.78;5075794;28;20052;-79
2024/02/21 00:19:34;;;;;;;4.97;4.70;;;;;;;7.00;100.00;101241.38;5080526;28;20519;-80
2024/02/21 00:21:59;;;;;;;1.67;1.58;;;;;;;6.75;100.00;101210.28;5064538;28;20048;-79
2024/02/21 00:24:25;;;;;;;0.22;0.22;;;;;;;7.15;100.00;101307.94;5056792;28;23516;-78
2024/02/21 00:26:51;;;;;;;2.40;1.02;;;;;;;6.97;100.00;101258.72;5080119;28;20417;-78
2024/02/21 00:29:16;;;;;;;1.42;0.98;;;;;;;6.45;100.00;101178.13;5069327;28;20044;-78
2024/02/21 00:31:42;;;;;;;1.77;1.67;;;;;;;7.04;100.00;101261.50;5085211;28;20035;-79
2024/02/21 00:34:07;;;;;;;10.50;6.82;;;;;;;7.28;100.00;101311.81;5063367;28;20045;-78
2024/02/21 00:36:33;;;;;;;1.15;1.05;;;;;;;7.36;100.00;101306.78;5079027;28;20032;-78
2024/02/21 00:38:59;;;;;;;4.47;1.85;;;;;;;6.71;100.00;101192.78;5073440;28;20047;-79
2024/02/21 00:41:24;;;;;;;5.15;4.88;;;;;;;6.94;100.00;101239.50;5048796;28;20071;-79
2024/02/21 00:43:50;;;;;;;1.23;1.15;;;;;;;7.08;100.00;101279.03;5078293;28;20048;-79
2024/02/21 00:46:15;;;;;;;0.95;0.95;;;;;;;6.97;100.00;101289.16;5085768;28;20079;-79
2024/02/21 00:48:41;;;;;;;0.70;0.70;;;;;;;7.31;100.00;101309.28;5057514;28;20072;-79
2024/02/21 00:51:07;;;;;;;1.55;1.45;;;;;;;7.17;100.00;101284.50;5082708;28;20407;-79
2024/02/21 00:53:32;;;;;;;4.22;4.03;;;;;;;6.50;100.00;101213.91;5065307;28;20131;-79
2024/02/21 00:55:58;;;;;;;7.75;7.05;;;;;;;6.98;100.00;101283.09;5084002;28;20181;-78
2024/02/21 00:58:23;;;;;;;2.88;2.75;;;;;;;6.99;100.00;101256.16;5060411;28;20134;-79
2024/02/21 01:00:49;;;;;;;5.38;5.15;;;;;;;6.82;100.00;101218.28;5085775;28;20127;-79
2024/02/21 01:03:14;;;;;;;0.55;0.55;;;;;;;6.88;100.00;101289.78;5078548;28;20024;-80
2024/02/21 01:05:40;;;;;;;2.10;2.00;;;;;;;6.73;100.00;101229.34;5081317;28;20055;-80
2024/02/21 01:08:05;;;;;;;7.53;7.22;;;;;;;6.68;100.00;101197.03;5070337;28;20071;-80
2024/02/21 01:10:31;;;;;;;7.60;6.95;;;;;;;7.27;100.00;101299.56;5077225;28;20068;-78
2024/02/21 01:12:57;;;;;;;3.08;2.92;;;;;;;6.67;100.00;101217.03;5082397;28;20078;-79
2024/02/21 01:15:22;;;;;;;2.17;2.08;;;;;;;6.69;100.00;101199.66;5068644;28;20071;-78
2024/02/21 01:17:49;;;;;;;5.70;5.25;;;;;;;7.16;100.00;101299.28;5066118;28;20024;-78
2024/02/21 01:20:15;;;;;;;0.40;0.40;;;;;;;7.11;100.00;101293.03;5059623;28;20067;-78
2024/02/21 01:22:40;;;;;;;1.52;1.42;;;;;;;7.14;100.00;101273.97;5044284;28;20068;-79
2024/02/21 01:25:07;;;;;;;5.70;5.13;;;;;;;7.23;100.00;101292.50;5075219;28;20039;-79
2024/02/21 01:27:32;;;;;;;2.40;2.20;;;;;;;7.25;100.00;101293.41;5049973;28;20452;-79
2024/02/21 01:29:58;;;;;;;0.30;0.30;;;;;;;6.62;100.00;101184.69;5072741;28;20487;-81
2024/02/21 01:32:24;;;;;;;0.95;0.93;;;;;;;7.19;100.00;101278.50;5079387;28;20080;-79
2024/02/21 01:34:50;;;;;;;9.32;8.38;;;;;;;6.61;100.00;101187.28;5068405;28;20041;-79
2024/02/21 01:37:16;;;;;;;2.00;1.88;;;;;;;7.08;100.00;101272.09;5073086;28;20048;-81
2024/02/21 01:39:44;;;;;;;2.40;2.25;;;;;;;7.05;100.00;101279.84;5076261;28;20514;-80
2024/02/21 01:42:09;;;;;;;0.85;0.85;;;;;;;6.92;100.00;101259.44;5067190;28;20032;-80
2024/02/21 01:44:36;;;;;;;4.43;4.15;;;;;;;6.47;100.00;101181.66;5077708;28;20090;-81
2024/02/21 01:47:02;;;;;;;1.27;0.90;;;;;;;7.02;100.00;101257.97;5078190;28;20052;-79
2024/02/21 01:49:28;;;;;;;2.40;1.95;;;;;;;6.63;100.00;101173.44;5084662;28;20055;-79
2024/02/21 01:51:55;;;;;;;5.25;4.78;;;;;;;7.20;100.00;101276.75;5082207;28;20048;-79
2024/02/21 01:54:20;;;;;;;1.65;1.55;;;;;;;7.15;100.00;101265.31;5070186;28;20028;-80
2024/02/21 01:56:47;;;;;;;0.20;0.20;;;;;;;6.79;100.00;101192.09;5079627;28;20096;-79
2024/02/21 01:59:15;;;;;;;0.45;0.45;;;;;;;7.08;100.00;101245.09;5072495;28;20135;-80
2024/02/21 02:01:41;;;;;;;0.30;0.30;;;;;;;6.66;100.00;101170.91;5080822;28;20048;-79
2024/02/21 02:04:08;;;;;;;0.75;0.75;;;;;;;7.18;100.00;101266.25;5076902;28;20055;-79
2024/02/21 02:06:34;;;;;;;2.35;2.25;;;;;;;7.14;100.00;101240.03;5077707;28;20056;-79
2024/02/21 02:09:01;;;;;;;1.10;1.10;;;;;;;7.19;100.00;101267.16;5073076;28;20032;-80
2024/02/21 02:11:26;;;;;;;3.83;3.13;;;;;;;6.60;100.00;101169.84;5079317;28;20047;-80
2024/02/21 02:13:52;;;;;;;1.80;1.70;;;;;;;7.08;100.00;101226.84;5076492;28;20043;-80
2024/02/21 02:16:17;;;;;;;0.90;0.90;;;;;;;7.12;100.00;101244.34;5072670;28;20039;-80
2024/02/21 02:18:44;;;;;;;1.10;1.00;;;;;;;7.38;100.00;101277.25;5049666;28;20127;-79
2024/02/21 02:21:27;;;;;;;1.15;1.15;;;;;;;6.62;100.00;101152.53;5067875;28;20032;-79
2024/02/21 02:23:52;;;;;;;2.50;2.40;;;;;;;6.76;100.00;101166.81;5066341;28;20102;-80
2024/02/21 02:26:18;;;;;;;5.43;4.95;;;;;;;7.24;100.00;101252.50;5082303;28;20044;-81
2024/02/21 02:28:43;;;;;;;0.77;0.75;;;;;;;6.85;100.00;101205.31;5076701;28;20090;-79
2024/02/21 02:31:09;;;;;;;5.75;5.55;;;;;;;7.00;100.00;101225.72;5075005;28;20491;-79
2024/02/21 02:33:34;;;;;;;1.60;1.50;;;;;;;6.16;100.00;101084.34;5069477;28;20186;-78
2024/02/21 02:36:00;;;;;;;14.88;1.33;;;;;;;7.20;100.00;101261.09;5094056;28;20130;-81
2024/02/21 02:38:25;;;;;;;0.60;0.60;;;;;;;6.80;100.00;101186.06;5088986;28;20056;-77
2024/02/21 02:40:51;;;;;;;1.45;1.35;;;;;;;6.64;100.00;101156.94;5082721;28;20051;-78
2024/02/21 02:43:16;;;;;;;4.35;4.10;;;;;;;6.90;100.00;101194.16;5081169;28;20438;-78
2024/02/21 02:45:42;;;;;;;0.40;0.40;;;;;;;7.10;100.00;101220.81;5076981;28;20063;-80
2024/02/21 02:48:08;;;;;;;1.38;1.25;;;;;;;7.30;100.00;101283.97;5079490;28;20108;-79
2024/02/21 02:50:33;;;;;;;0.50;0.50;;;;;;;7.35;100.00;101271.97;5049674;28;20516;-80
2024/02/21 02:52:59;;;;;;;0.43;0.43;;;;;;;6.64;100.00;101158.66;5055143;28;20078;-79
2024/02/21 02:55:25;;;;;;;0.30;0.30;;;;;;;6.93;100.00;101220.34;5061937;28;20178;-79
2024/02/21 02:57:51;;;;;;;1.27;1.17;;;;;;;7.00;100.00;101244.00;5070092;28;20043;-80
2024/02/21 03:00:18;;;;;;;1.10;0.88;;;;;;;7.14;100.00;101255.69;5069783;28;20085;-79
2024/02/21 03:02:45;;;;;;;12.90;11.70;;;;;;;7.33;100.00;101283.22;5080168;28;20028;-79
2024/02/21 03:05:21;;;;;;;5.22;4.78;;;;;;;7.13;100.00;101236.53;5066249;28;20052;-79
2024/02/21 03:07:48;;;;;;;0.50;0.50;;;;;;;7.13;100.00;101238.28;5075356;28;20032;-79
2024/02/21 03:10:14;;;;;;;1.33;1.23;;;;;;;7.28;100.00;101274.34;5075377;28;20036;-79
2024/02/21 03:12:42;;;;;;;0.88;0.73;;;;;;;7.13;100.00;101280.03;5081421;28;20041;-79
2024/02/21 03:15:08;;;;;;;11.50;9.25;;;;;;;7.07;100.00;101282.47;5071228;28;20028;-79
2024/02/21 03:17:36;;;;;;;7.38;6.93;;;;;;;6.95;100.00;101265.66;5074315;28;20104;-82
2024/02/21 03:20:08;;;;;;;0.30;0.30;;;;;;;6.58;100.00;101195.91;5074512;28;20051;-82
2024/02/21 03:22:33;;;;;;;10.63;9.63;;;;;;;5.83;100.00;101068.56;5073848;28;20053;-82
2024/02/21 03:24:59;;;;;;;8.77;8.43;;;;;;;7.00;100.00;101271.00;5052266;28;20519;-80
2024/02/21 03:27:25;;;;;;;1.38;1.20;;;;;;;6.75;100.00;101248.53;5069954;28;20056;-80
2024/02/21 03:29:50;;;;;;;3.53;3.35;;;;;;;6.57;100.00;101234.94;5072775;28;20036;-80
2024/02/21 03:32:16;;;;;;;4.07;3.83;;;;;;;6.53;100.00;101257.41;5070497;28;20048;-81
2024/02/21 03:34:41;;;;;;;0.95;0.95;;;;;;;6.22;100.00;101191.34;5077846;28;20052;-82
2024/02/21 03:37:07;;;;;;;4.40;1.17;;;;;;;6.72;100.00;101280.63;5069862;28;20510;-81
2024/02/21 03:39:32;;;;;;;1.10;1.00;;;;;;;6.90;100.00;101289.81;5069314;28;20060;-82
2024/02/21 03:42:00;;;;;;;3.92;3.72;;;;;;;6.59;100.00;101236.75;5057591;28;20040;-82
2024/02/21 03:44:26;;;;;;;3.10;2.28;;;;;;;6.11;100.00;101164.97;5074810;28;20074;-82
2024/02/21 03:46:52;;;;;;;1.67;1.60;;;;;;;6.27;100.00;101176.72;5081839;28;20079;-81
2024/02/21 03:49:18;;;;;;;4.18;3.92;;;;;;;6.01;100.00;101157.69;5063573;28;20120;-80
2024/02/21 03:51:43;;;;;;;2.15;2.05;;;;;;;6.24;100.00;101173.16;5077015;28;20115;-82
2024/02/21 03:54:09;;;;;;;9.15;3.17;;;;;;;6.11;100.00;101164.97;5070390;28;20037;-81
2024/02/21 03:56:39;;;;;;;3.80;3.53;;;;;;;6.63;100.00;101269.91;5075061;28;20040;-81
2024/02/21 03:59:06;;;;;;;1.63;1.55;;;;;;;5.93;100.00;101167.84;5078740;28;20470;-79
2024/02/21 04:01:32;;;;;;;8.50;8.07;;;;;;;6.53;100.00;101284.41;5077554;28;20051;-82
2024/02/21 04:03:57;;;;;;;10.65;9.68;;;;;;;6.25;100.00;101214.91;5082291;28;20491;-81
2024/02/21 04:06:23;;;;;;;4.22;3.92;;;;;;;6.79;100.00;101291.22;5045660;28;20059;-80
2024/02/21 04:08:48;;;;;;;8.55;8.07;;;;;;;6.34;100.00;101219.50;5068918;28;20028;-80
2024/02/21 04:11:14;;;;;;;0.30;0.30;;;;;;;6.11;100.00;101172.78;5069002;28;20067;-79
2024/02/21 04:13:39;;;;;;;2.28;2.13;;;;;;;6.72;100.00;101269.31;5078989;28;20049;-79
2024/02/21 04:16:06;;;;;;;1.55;1.27;;;;;;;6.16;100.00;101170.31;5079388;28;20550;-80
2024/02/21 04:18:31;;;;;;;2.60;2.50;;;;;;;6.41;100.00;101202.31;5082468;28;20033;-81
2024/02/21 04:20:57;;;;;;;0.30;0.30;;;;;;;6.13;100.00;101183.25;5083795;28;20044;-80
2024/02/21 04:23:23;;;;;;;1.40;1.30;;;;;;;6.24;100.00;101204.44;5060771;28;20052;-79
2024/02/21 04:25:49;;;;;;;1.17;1.15;;;;;;;6.26;100.00;101227.09;5080803;28;20498;-80
2024/02/21 04:28:14;;;;;;;3.30;2.60;;;;;;;6.50;100.00;101250.41;5082783;28;20083;-81
2024/02/21 04:30:40;;;;;;;0.77;0.77;;;;;;;6.65;100.00;101288.19;5073155;28;20109;-79
2024/02/21 04:33:05;;;;;;;13.60;12.50;;;;;;;6.74;100.00;101275.44;5073466;28;20142;-81
2024/02/21 04:35:31;;;;;;;1.42;1.38;;;;;;;6.61;100.00;101261.16;5078908;28;20535;-82
2024/02/21 04:37:56;;;;;;;1.00;1.00;;;;;;;6.53;100.00;101252.22;5086275;28;20138;-81
2024/02/21 04:40:22;;;;;;;1.65;1.55;;;;;;;6.16;100.00;101212.03;5075638;28;20454;-79
2024/02/21 04:42:48;;;;;;;1.13;1.02;;;;;;;6.72;100.00;101314.53;5071807;28;20062;-80
2024/02/21 04:45:13;;;;;;;23.15;20.88;;;;;;;6.60;100.00;101269.81;5044168;28;20029;-80
2024/02/21 04:47:39;;;;;;;0.40;0.40;;;;;;;6.20;100.00;101246.84;5073024;28;20048;-81
2024/02/21 04:50:05;;;;;;;4.82;4.45;;;;;;;6.59;100.00;101311.50;5073058;28;20048;-81
2024/02/21 04:52:31;;;;;;;1.70;1.60;;;;;;;6.53;100.00;101302.66;5060735;28;20051;-81
2024/02/21 04:54:56;;;;;;;4.63;4.32;;;;;;;6.20;100.00;101241.66;5059189;28;20048;-80
2024/02/21 04:57:22;;;;;;;1.42;1.33;;;;;;;6.45;100.00;101282.41;5072276;28;20036;-79
2024/02/21 04:59:47;;;;;;;5.32;4.43;;;;;;;6.60;100.00;101305.44;5078531;28;20399;-78
2024/02/21 05:02:14;;;;;;;34.78;8.35;;;;;;;6.09;100.00;101210.06;5091030;28;20048;-80
2024/02/21 05:04:41;;;;;;;0.85;0.82;;;;;;;6.12;100.00;101225.78;5086128;28;20040;-80
2024/02/21 05:07:07;;;;;;;1.30;1.20;;;;;;;6.39;100.00;101280.50;5079220;28;20063;-79
2024/02/21 05:09:32;;;;;;;1.75;1.65;;;;;;;5.87;100.00;101204.13;5070255;28;20059;-80
2024/02/21 05:12:00;;;;;;;1.80;1.70;;;;;;;6.25;100.00;101279.16;5086536;28;20035;-78
2024/02/21 05:14:29;;;;;;;0.82;0.73;;;;;;;6.57;100.00;101315.78;5075969;28;20135;-82
2024/02/21 05:16:55;;;;;;;3.00;2.83;;;;;;;6.67;100.00;101323.94;5068311;28;20079;-80
2024/02/21 05:19:20;;;;;;;3.50;3.22;;;;;;;6.73;100.00;101326.72;5068008;28;20072;-79
2024/02/21 05:21:46;;;;;;;0.75;0.75;;;;;;;5.76;100.00;101184.69;5038302;28;20110;-80
2024/02/21 05:24:12;;;;;;;1.17;1.00;;;;;;;6.47;100.00;101331.13;5068777;28;20058;-83
2024/02/21 05:26:38;;;;;;;1.70;1.60;;;;;;;6.09;100.00;101249.16;5078672;28;20159;-82
2024/02/21 05:29:03;;;;;;;3.50;2.28;;;;;;;6.60;100.00;101318.47;5079131;28;20040;-79
2024/02/21 05:31:50;;;;;;;1.00;1.00;;;;;;;6.75;100.00;101339.81;5059320;28;20057;-80
2024/02/21 05:34:16;;;;;;;7.25;6.72;;;;;;;6.55;100.00;101311.41;5076546;28;20432;-81
2024/02/21 05:36:42;;;;;;;9.75;8.85;;;;;;;6.38;100.00;101262.19;5085184;28;20063;-80
2024/02/21 05:39:07;;;;;;;12.55;11.40;;;;;;;6.53;100.00;101288.72;5080053;28;20028;-79
2024/02/21 05:41:33;;;;;;;0.30;0.30;;;;;;;6.18;100.00;101217.25;5074837;28;20040;-79
2024/02/21 05:43:58;;;;;;;0.30;0.30;;;;;;;6.87;100.00;101341.91;5066351;28;20047;-80
2024/02/21 05:46:24;;;;;;;5.35;4.93;;;;;;;6.28;100.00;101248.00;5081580;28;20056;-81
2024/02/21 05:48:50;;;;;;;21.05;19.67;;;;;;;6.90;100.00;101349.81;5081628;28;20032;-82
2024/02/21 05:51:18;;;;;;;44.67;10.68;;;;;;;6.82;100.00;101323.50;5073501;28;20067;-82
2024/02/21 05:53:43;;;;;;;8.88;8.40;;;;;;;6.30;100.00;101238.50;5061186;28;20036;-81
2024/02/21 05:56:13;;;;;;;2.63;2.53;;;;;;;6.75;100.00;101304.19;5082412;28;20075;-82
2024/02/21 05:58:39;;;;;;;0.30;0.30;;;;;;;6.70;100.00;101305.78;5074654;28;20514;-81
2024/02/21 06:01:06;;;;;;;8.13;7.75;;;;;;;6.81;100.00;101329.53;5080573;28;20163;-82
2024/02/21 06:03:33;;;;;;;3.30;3.20;;;;;;;5.90;100.00;101169.50;5062138;28;20513;-83
2024/02/21 06:06:00;;;;;;;6.47;5.95;;;;;;;6.94;100.00;101330.81;5079199;28;20112;-82
2024/02/21 06:08:27;;;;;;;3.75;3.50;;;;;;;7.04;100.00;101330.22;5068688;28;20052;-82
2024/02/21 06:10:55;;;;;;;14.13;5.47;;;;;;;7.19;100.00;101354.19;5038576;28;20052;-82
2024/02/21 06:13:21;;;;;;;3.90;2.58;;;;;;;6.29;100.00;101231.50;5073679;28;20040;-81
2024/02/21 06:15:47;;;;;;;2.63;2.47;;;;;;;7.18;100.00;101359.34;5071742;28;20048;-81
2024/02/21 06:18:13;;;;;;;2.47;2.30;;;;;;;7.25;100.00;101369.13;5062114;28;20589;-80
2024/02/21 06:20:40;;;;;;;1.75;1.65;;;;;;;7.12;100.00;101361.78;5060509;28;20119;-78
2024/02/21 06:23:06;;;;;;;1.85;1.75;;;;;;;6.90;100.00;101306.34;5066185;28;20036;-78
2024/02/21 06:25:32;;;;;;;0.50;0.50;;;;;;;7.04;100.00;101317.19;5059446;28;20571;-83
2024/02/21 06:27:57;;;;;;;6.03;5.63;;;;;;;7.43;100.00;101383.56;5073954;28;20404;-81
2024/02/21 06:30:23;;;;;;;2.45;2.25;;;;;;;7.34;100.00;101356.34;5073035;28;20034;-83
2024/02/21 06:32:48;;;;;;;5.32;5.05;;;;;;;6.59;100.00;101228.06;5073877;28;20564;-79
2024/02/21 06:35:14;;;;;;;3.58;3.13;;;;;;;6.76;100.00;101274.63;5075476;28;20147;-79
2024/02/21 06:37:41;;;;;;;0.85;0.85;;;;;;;7.10;100.00;101333.03;5072827;28;20051;-78
2024/02/21 06:40:07;;;;;;;11.13;1.95;;;;;;;7.29;100.00;101384.03;5043619;28;20123;-79
2024/02/21 06:42:33;;;;;;;3.58;3.30;;;;;;;7.28;100.00;101366.63;5041637;28;20151;-80
2024/02/21 06:44:58;;;;;;;0.85;0.73;;;;;;;5.36;100.00;101032.47;5058145;28;20033;-78
2024/02/21 06:47:24;;;;;;;3.78;3.55;;;;;;;6.75;100.00;101266.78;5074932;28;20147;-82
2024/02/21 06:49:51;;;;;;;5.22;4.05;;;;;;;7.10;100.00;101361.75;5059630;28;20059;-82
2024/02/21 06:52:20;;;;;;;1.77;1.67;;;;;;;7.43;100.00;101370.50;5066702;28;20470;-82
2024/02/21 06:54:48;;;;;;;1.02;1.02;;;;;;;7.22;100.00;101360.34;5073676;28;20040;-80
2024/02/21 06:57:17;;;;;;;2.25;2.15;;;;;;;7.27;100.00;101383.09;5081558;28;20480;-80
2024/02/21 06:59:42;;;;;;;2.35;2.25;;;;;;;6.53;100.00;101263.53;5071059;28;20069;-81
2024/02/21 07:02:08;;;;;;;6.07;4.97;;;;;;;6.55;100.00;101269.69;5070697;28;20049;-79
2024/02/21 07:04:34;;;;;;;5.32;1.83;;;;;;;7.05;100.00;101323.31;5064453;28;20123;-80
2024/02/21 07:06:59;;;;;;;14.02;10.30;;;;;;;6.94;100.00;101291.69;5065401;28;20065;-80
2024/02/21 07:09:25;;;;;;;2.05;1.95;;;;;;;7.42;100.00;101364.38;5055232;28;20109;-80
2024/02/21 07:11:51;;;;;;;2.58;2.47;;;;;;;6.88;100.00;101295.00;5081782;28;20143;-80
2024/02/21 07:14:19;;;;;;;0.88;0.82;;;;;;;7.32;100.00;101365.84;5076368;28;20036;-81
2024/02/21 07:16:45;;;;;;;0.60;0.60;;;;;;;7.54;100.00;101390.84;5077805;28;20044;-81
2024/02/21 07:19:10;;;;;;;0.30;0.30;;;;;;;7.13;100.00;101300.91;5069137;28;20566;-80
2024/02/21 07:21:37;;;;;;;3.83;3.63;;;;;;;7.56;100.00;101385.66;5076800;28;20069;-81
2024/02/21 07:24:04;;;;;;;1.30;1.20;;;;;;;7.61;100.00;101381.47;5084574;28;20078;-81
2024/02/21 07:26:31;;;;;;;8.35;6.53;;;;;;;7.56;100.00;101389.19;5061880;28;20049;-81
2024/02/21 07:28:56;;;;;;;2.00;1.90;;;;;;;7.54;100.00;101375.19;5080665;28;20158;-80
2024/02/21 07:31:22;;;;;;;10.00;9.13;;;;;;;7.70;100.00;101399.09;5093438;28;20052;-80
2024/02/21 07:33:47;;;;;;;3.35;3.15;;;;;;;6.94;100.00;101260.38;5093695;28;20069;-80
2024/02/21 07:36:15;;;;;;;0.75;0.75;;;;;;;7.26;100.00;101289.06;5085725;28;20025;-83
2024/02/21 07:38:41;;;;;;;20.40;11.10;;;;;;;7.73;100.00;101373.09;5083637;28;20147;-80
2024/02/21 07:41:07;;;;;;;4.68;1.30;;;;;;;7.35;100.00;101307.59;5083515;28;20135;-82
2024/02/21 07:43:32;;;;;;;3.17;3.03;;;;;;;7.31;100.00;101292.72;5083630;28;20048;-80
2024/02/21 07:45:58;;;;;;;0.63;0.30;;;;;;;7.26;100.00;101317.78;5075345;28;20047;-81
2024/02/21 07:48:27;;;;;;;0.50;0.50;;;;;;;7.22;100.00;101302.91;5078820;28;20036;-81
2024/02/21 07:50:52;;;;;;;7.88;3.50;;;;;;;7.78;100.00;101372.34;5083864;28;20115;-79
2024/02/21 07:53:20;;;;;;;1.85;1.75;;;;;;;7.63;100.00;101322.28;5057019;28;20091;-79
2024/02/21 07:55:45;;;;;;;7.97;7.22;;;;;;;7.85;100.00;101355.13;5074412;28;20098;-80
2024/02/21 07:58:11;;;;;;;6.25;5.93;;;;;;;8.13;100.00;101401.16;5076226;28;20040;-80
2024/02/21 08:00:36;;;;;;;11.68;11.13;;;;;;;8.17;100.00;101386.41;5083485;28;20072;-80
2024/02/21 08:03:02;;;;;;;0.70;0.70;;;;;;;7.72;100.00;101278.13;5081905;28;20039;-80
2024/02/21 08:05:30;;;;;;;1.25;1.05;;;;;;;8.09;100.00;101340.91;5081343;28;20949;-79
2024/02/21 08:07:55;;;;;;;5.93;5.72;;;;;;;8.23;100.00;101389.19;5079834;28;20101;-79
2024/02/21 08:10:21;;;;;;;2.63;2.45;;;;;;;8.20;100.00;101387.38;5080937;28;20044;-81
2024/02/21 08:12:46;;;;;;;2.60;2.40;;;;;;;8.02;100.00;101347.69;5078699;28;20499;-80
2024/02/21 08:15:12;;;;;;;1.30;0.93;;;;;;;8.51;100.00;101393.41;5079223;28;20032;-79
2024/02/21 08:17:38;;;;;;;1.05;1.05;;;;;;;8.21;100.00;101304.59;5075452;28;20430;-78
2024/02/21 08:20:04;;;;;;;1.08;1.08;;;;;;;8.77;100.00;101375.69;5078024;28;20472;-80
2024/02/21 08:22:30;;;;;;;0.30;0.30;;;;;;;8.63;100.00;101349.22;5075517;28;20448;-79
2024/02/21 08:24:56;;;;;;;0.95;0.95;;;;;;;8.13;100.00;101287.88;5072895;28;20047;-80
2024/02/21 08:27:21;;;;;;;4.57;4.35;;;;;;;8.58;100.00;101295.91;5074969;28;20040;-80
2024/02/21 08:29:47;;;;;;;1.05;1.05;;;;;;;9.14;100.00;101376.53;5077148;28;20028;-80
2024/02/21 08:32:12;;;;;;;7.70;6.38;;;;;;;9.11;100.00;101357.22;5076791;28;20059;-81
2024/02/21 08:34:38;;;;;;;1.65;1.55;;;;;;;8.83;100.00;101299.97;5079136;28;20067;-80
2024/02/21 08:37:04;;;;;;;9.07;8.15;;;;;;;8.54;100.00;101267.91;5087328;28;20063;-80
2024/02/21 08:39:30;;;;;;;3.20;2.05;;;;;;;9.49;100.00;101381.59;5080428;28;20119;-81
2024/02/21 08:41:56;;;;;;;10.52;6.97;;;;;;;9.59;100.00;101377.44;5079596;28;20036;-78
2024/02/21 08:44:27;;;;;;;8.27;7.47;;;;;;;9.22;100.00;101298.13;5078121;28;20065;-80
2024/02/21 08:46:53;;;;;;;1.27;1.17;;;;;;;9.49;100.00;101361.53;5075296;28;20048;-81
2024/02/21 08:49:20;;;;;;;0.75;0.75;;;;;;;9.65;100.00;101343.50;5075853;28;20083;-80
2024/02/21 08:51:46;;;;;;;8.90;8.23;;;;;;;9.89;100.00;101385.00;5080356;28;20048;-82
2024/02/21 08:54:12;;;;;;;1.45;1.23;;;;;;;9.23;100.00;101252.75;5082508;28;20028;-81
2024/02/21 08:56:37;;;;;;;2.15;2.05;;;;;;;9.52;100.00;101295.19;5077815;28;21071;-79
2024/02/21 08:59:03;;;;;;;3.53;3.25;;;;;;;9.50;100.00;101265.47;5069178;28;20477;-79
2024/02/21 09:01:29;;;;;;;1.90;1.80;;;;;;;9.79;100.00;101297.44;5085131;28;20052;-78
2024/02/21 09:03:56;;;;;;;2.97;2.78;;;;;;;9.53;100.00;101268.16;5079882;28;20051;-79
2024/02/21 09:06:22;;;;;;;1.58;1.13;;;;;;;10.23;100.00;101380.34;5080400;28;20031;-80
2024/02/21 09:08:48;;;;;;;13.35;9.60;;;;;;;9.79;100.00;101279.09;5079930;28;20039;-80
2024/02/21 09:11:14;;;;;;;4.05;2.17;;;;;;;10.35;100.00;101364.84;5075942;28;20040;-79
2024/02/21 09:13:39;;;;;;;3.13;2.65;;;;;;;9.82;100.00;101280.88;5078724;28;20120;-80
2024/02/21 09:16:05;;;;;;;6.18;5.57;;;;;;;10.42;100.00;101378.94;5080593;28;20040;-79
2024/02/21 09:18:31;;;;;;;7.65;6.55;;;;;;;10.23;100.00;101328.78;5083985;28;20684;-79
2024/02/21 09:20:57;;;;;;;6.05;4.85;;;;;;;10.69;100.00;101353.13;5074700;28;20040;-79
2024/02/21 09:23:26;;;;;;;7.30;6.75;;;;;;;10.69;100.00;101329.50;5080772;28;20421;-80
2024/02/21 09:25:51;;;;;;;1.13;1.08;;;;;;;10.84;100.00;101365.59;5085016;28;20028;-82
2024/02/21 09:28:17;;;;;;;5.00;4.60;;;;;;;10.54;100.00;101351.16;5085008;28;20054;-79
2024/02/21 09:30:43;;;;;;;6.25;5.05;;;;;;;10.64;100.00;101341.66;5081236;28;20484;-80
2024/02/21 09:33:08;;;;;;;4.35;3.97;;;;;;;10.87;100.00;101370.88;5075540;28;20180;-80
2024/02/21 09:35:34;;;;;;;7.88;5.75;;;;;;;10.77;100.00;101338.38;5080034;28;20063;-79
2024/02/21 09:38:00;;;;;;;4.97;4.53;;;;;;;10.86;100.00;101347.22;5079781;28;20172;-80
2024/02/21 09:40:27;;;;;;;8.85;8.15;;;;;;;10.39;100.00;101247.72;5081664;28;20047;-80
2024/02/21 09:43:04;;;;;;;5.53;4.90;;;;;;;10.10;100.00;101335.56;5076258;28;20385;-78
2024/02/21 09:45:29;;;;;;;3.85;3.42;;;;;;;10.71;100.00;101340.91;5082680;28;20510;-81
2024/02/21 09:48:28;;;;;;;4.55;3.55;;;;;;;10.68;100.00;101340.88;5080225;28;20046;-81
2024/02/21 09:50:56;;;;;;;10.93;7.15;;;;;;;10.32;100.00;101278.22;5077056;28;20138;-80
2024/02/21 09:53:24;;;;;;;4.82;3.83;;;;;;;10.85;100.00;101348.09;5077925;28;20048;-80
2024/02/21 09:55:50;;;;;;;7.75;3.75;;;;;;;10.40;100.00;101346.56;5076189;28;20507;-80
2024/02/21 09:58:18;;;;;;;2.70;2.50;;;;;;;10.60;100.00;101357.34;5074698;28;20056;-79
2024/02/21 10:00:43;;;;;;;17.33;15.48;;;;;;;8.87;100.00;101084.56;5078290;28;20049;-79
2024/02/21 10:03:09;;;;;;;5.75;4.55;;;;;;;10.41;100.00;101364.94;5091434;28;20028;-78
2024/02/21 10:05:36;;;;;;;8.43;7.63;;;;;;;10.46;100.00;101349.25;5068753;28;20072;-79
2024/02/21 10:08:02;;;;;;;9.52;6.30;;;;;;;9.93;100.00;101230.41;5081146;28;20113;-79
2024/02/21 10:10:29;;;;;;;1.98;1.48;;;;;;;10.20;100.00;101246.53;5080571;28;20456;-81
2024/02/21 10:12:55;;;;;;;9.82;6.97;;;;;;;10.81;100.00;101341.03;5077101;28;20055;-80
2024/02/21 10:15:24;;;;;;;4.38;3.65;;;;;;;10.52;100.00;101295.13;5081806;28;20028;-80
2024/02/21 10:17:58;;;;;;;8.70;6.57;;;;;;;10.87;100.00;101338.50;5079816;28;20035;-80
2024/02/21 10:20:24;;;;;;;5.60;4.95;;;;;;;10.53;100.00;101273.28;5074109;28;20040;-80
2024/02/21 10:23:01;;;;;;;4.78;4.22;;;;;;;10.76;100.00;101335.72;5082309;28;20412;-79
2024/02/21 10:25:27;;;;;;;8.75;5.82;;;;;;;10.46;100.00;101257.44;5057398;28;20508;-81
2024/02/21 10:27:53;;;;;;;5.13;4.63;;;;;;;10.19;100.00;101287.63;5079778;28;20040;-81
2024/02/21 10:30:18;;;;;;;4.75;4.22;;;;;;;10.30;100.00;101298.28;5065014;28;20071;-81
2024/02/21 10:32:54;;;;;;;4.40;2.58;;;;;;;10.29;100.00;101299.16;5081840;28;20063;-82
2024/02/21 10:35:30;;;;;;;4.35;3.97;;;;;;;10.19;100.00;101221.19;5077445;28;20396;-80
2024/02/21 10:37:56;;;;;;;4.22;2.00;;;;;;;10.50;100.00;101278.50;5080808;28;20048;-80
2024/02/21 10:40:27;;;;;;;4.82;4.30;;;;;;;10.52;100.00;101320.50;5072374;28;20044;-80
2024/02/21 10:43:01;;;;;;;4.90;4.20;;;;;;;10.66;100.00;101290.09;5062445;28;20056;-79
2024/02/21 10:45:30;;;;;;;;;;;;;;;10.85;100.00;101304.34;5077403;28;20071;-81
2024/02/21 10:48:09;;;;;;;4.95;4.45;;;;;;;10.54;100.00;101261.06;5079359;28;19916;-80
2024/02/21 10:51:23;;;;;;;5.82;5.30;;;;;;;10.34;100.00;101266.88;5072750;28;20067;-80
2024/02/21 10:54:14;;;;;;;5.45;4.95;;;;;;;10.65;100.00;101287.44;5019029;28;20065;-81
2024/02/21 10:56:41;;;;;;;7.00;6.30;;;;;;;10.20;100.00;101212.44;5021303;28;20048;-81
2024/02/21 10:59:07;;;;;;;8.65;6.82;;;;;;;10.29;100.00;101191.63;5019178;28;20069;-79
2024/02/21 11:01:35;;;;;;;7.45;6.35;;;;;;;10.60;100.00;101287.38;5019599;28;20520;-79
2024/02/21 11:04:08;;;;;;;7.05;5.75;;;;;;;11.10;100.00;101292.41;5019426;28;20045;-80
2024/02/21 11:06:38;;;;;;;;;;;;;;;10.57;100.00;101282.09;5078230;28;20407;-80
2024/02/21 11:09:08;;;;;;;0.20;0.20;;;;;;;10.82;100.00;101290.31;5085828;28;19920;-79
2024/02/21 11:11:44;;;;;;;7.30;5.75;;;;;;;9.66;100.00;101098.91;5081967;28;20044;-80
2024/02/21 11:14:21;;;;;;;7.57;6.82;;;;;;;10.43;100.00;101247.78;5076448;28;20510;-80
2024/02/21 11:16:47;;;;;;;8.15;6.22;;;;;;;9.83;100.00;101178.69;5060551;28;20487;-81
2024/02/21 11:19:23;;;;;;;5.45;4.50;;;;;;;10.56;100.00;101180.63;5078728;28;20045;-81
2024/02/21 11:21:50;;;;;;;14.15;8.75;;;;;;;10.59;100.00;101225.25;5082086;28;20077;-79